DAUO

Guemar Airport

Guemar, Algeria
METAR DAUO 171846Z 19003KT 9999 FEW023CB SCT026 19/17 Q1006
Observed Flight Rules
Oct-17 @ 18:46 UTC (21 hours ago) Visual Flight Rules
Wind Visibility Clouds
190° at 3 knots 10,000+ meters
  • Few at 2,300' AGL
  • Scattered at 2,600' AGL
Temperatures Readings
Current 19°C / 66°F
Dewpoint 17°C / 63°F
Humidity 88%
Altimeter 29.7" Hg
Pressure 1006 hPa
Elevation 63
METAR DAUO 171846Z 19003KT 9999 FEW023CB SCT026 19/17 Q1006
Observed Flight Rules
Oct-17 @ 18:46 UTC
(21 hours ago)
VFR
Wind Visibility
190° at 3 knots 10,000+ meters
Clouds
  • Few at 2,300' AGL
  • Scattered at 2,600' AGL
Temperature Dewpoint
19°C / 66°F 17°C / 63°F
Humidity Altimeter Pressure
88% 29.7" Hg 1006 hPa